sensor_id;sensor_type;location;lat;lon;timestamp;temperature;humidity
64599;SHT31;51008;51.504;11.548;2023-07-08T00:01:47;15.53;70.98
64599;SHT31;51008;51.504;11.548;2023-07-08T00:06:47;15.50;70.69
64599;SHT31;51008;51.504;11.548;2023-07-08T00:11:48;15.44;71.01
64599;SHT31;51008;51.504;11.548;2023-07-08T00:16:49;15.40;71.12
64599;SHT31;51008;51.504;11.548;2023-07-08T00:21:50;15.32;71.58
64599;SHT31;51008;51.504;11.548;2023-07-08T00:26:51;15.26;71.87
64599;SHT31;51008;51.504;11.548;2023-07-08T00:31:53;15.11;72.32
64599;SHT31;51008;51.504;11.548;2023-07-08T00:36:54;15.05;73.03
64599;SHT31;51008;51.504;11.548;2023-07-08T00:41:57;15.04;72.89
64599;SHT31;51008;51.504;11.548;2023-07-08T00:47:04;14.94;73.70
64599;SHT31;51008;51.504;11.548;2023-07-08T00:52:22;14.92;73.45
64599;SHT31;51008;51.504;11.548;2023-07-08T00:57:26;14.90;73.55
64599;SHT31;51008;51.504;11.548;2023-07-08T01:02:29;14.81;73.67
64599;SHT31;51008;51.504;11.548;2023-07-08T01:07:31;14.73;74.33
64599;SHT31;51008;51.504;11.548;2023-07-08T01:12:37;14.64;74.29
64599;SHT31;51008;51.504;11.548;2023-07-08T01:17:39;14.59;75.01
64599;SHT31;51008;51.504;11.548;2023-07-08T01:22:41;14.53;74.98
64599;SHT31;51008;51.504;11.548;2023-07-08T01:27:46;14.53;75.21
64599;SHT31;51008;51.504;11.548;2023-07-08T01:32:51;14.46;74.72
64599;SHT31;51008;51.504;11.548;2023-07-08T01:38:00;14.42;75.09
64599;SHT31;51008;51.504;11.548;2023-07-08T01:43:04;14.42;75.16
64599;SHT31;51008;51.504;11.548;2023-07-08T01:48:10;14.37;75.31
64599;SHT31;51008;51.504;11.548;2023-07-08T01:53:21;14.36;75.92
64599;SHT31;51008;51.504;11.548;2023-07-08T01:58:22;14.36;75.90
64599;SHT31;51008;51.504;11.548;2023-07-08T02:03:23;14.29;76.57
64599;SHT31;51008;51.504;11.548;2023-07-08T02:08:24;14.29;77.02
64599;SHT31;51008;51.504;11.548;2023-07-08T02:13:26;14.22;76.43
64599;SHT31;51008;51.504;11.548;2023-07-08T02:18:27;14.18;76.36
64599;SHT31;51008;51.504;11.548;2023-07-08T02:23:29;14.14;76.60
64599;SHT31;51008;51.504;11.548;2023-07-08T02:28:34;14.10;77.25
64599;SHT31;51008;51.504;11.548;2023-07-08T02:33:35;14.05;76.95
64599;SHT31;51008;51.504;11.548;2023-07-08T02:38:35;14.04;76.93
64599;SHT31;51008;51.504;11.548;2023-07-08T02:43:37;13.94;76.97
64599;SHT31;51008;51.504;11.548;2023-07-08T02:48:38;13.83;78.55
64599;SHT31;51008;51.504;11.548;2023-07-08T02:53:39;13.81;77.84
64599;SHT31;51008;51.504;11.548;2023-07-08T02:58:40;13.74;77.98
64599;SHT31;51008;51.504;11.548;2023-07-08T03:03:41;13.71;78.48
64599;SHT31;51008;51.504;11.548;2023-07-08T03:08:42;13.66;78.72
64599;SHT31;51008;51.504;11.548;2023-07-08T03:13:43;13.65;78.93
64599;SHT31;51008;51.504;11.548;2023-07-08T03:18:44;13.63;79.60
64599;SHT31;51008;51.504;11.548;2023-07-08T03:23:45;13.70;79.13
64599;SHT31;51008;51.504;11.548;2023-07-08T03:28:47;13.81;78.95
64599;SHT31;51008;51.504;11.548;2023-07-08T03:33:49;13.91;78.68
64599;SHT31;51008;51.504;11.548;2023-07-08T03:38:52;13.87;79.57
64599;SHT31;51008;51.504;11.548;2023-07-08T03:43:53;14.04;78.85
64599;SHT31;51008;51.504;11.548;2023-07-08T03:48:54;14.26;78.29
64599;SHT31;51008;51.504;11.548;2023-07-08T03:53:56;14.62;77.79
64599;SHT31;51008;51.504;11.548;2023-07-08T03:58:58;14.99;77.38
64599;SHT31;51008;51.504;11.548;2023-07-08T04:03:59;15.36;76.38
64599;SHT31;51008;51.504;11.548;2023-07-08T04:09:01;15.70;75.39
64599;SHT31;51008;51.504;11.548;2023-07-08T04:14:01;16.11;75.45
64599;SHT31;51008;51.504;11.548;2023-07-08T04:19:02;16.57;74.58
64599;SHT31;51008;51.504;11.548;2023-07-08T04:24:03;16.96;73.50
64599;SHT31;51008;51.504;11.548;2023-07-08T04:29:09;17.20;72.36
64599;SHT31;51008;51.504;11.548;2023-07-08T04:34:11;17.63;73.05
64599;SHT31;51008;51.504;11.548;2023-07-08T04:39:12;18.15;71.48
64599;SHT31;51008;51.504;11.548;2023-07-08T04:44:14;18.37;71.23
64599;SHT31;51008;51.504;11.548;2023-07-08T04:49:15;18.84;71.40
64599;SHT31;51008;51.504;11.548;2023-07-08T04:54:16;19.33;68.69
64599;SHT31;51008;51.504;11.548;2023-07-08T04:59:24;19.67;68.41
64599;SHT31;51008;51.504;11.548;2023-07-08T05:04:25;19.96;67.14
64599;SHT31;51008;51.504;11.548;2023-07-08T05:09:26;20.32;64.78
64599;SHT31;51008;51.504;11.548;2023-07-08T05:14:27;20.37;63.99
64599;SHT31;51008;51.504;11.548;2023-07-08T05:19:28;20.48;63.02
64599;SHT31;51008;51.504;11.548;2023-07-08T05:24:29;20.51;62.27
64599;SHT31;51008;51.504;11.548;2023-07-08T05:29:30;20.74;60.70
64599;SHT31;51008;51.504;11.548;2023-07-08T05:34:31;20.75;59.19
64599;SHT31;51008;51.504;11.548;2023-07-08T05:39:32;20.61;59.68
64599;SHT31;51008;51.504;11.548;2023-07-08T05:44:33;20.61;58.57
64599;SHT31;51008;51.504;11.548;2023-07-08T05:49:34;20.77;59.71
64599;SHT31;51008;51.504;11.548;2023-07-08T05:54:37;21.05;59.47
64599;SHT31;51008;51.504;11.548;2023-07-08T05:59:38;21.14;59.01
64599;SHT31;51008;51.504;11.548;2023-07-08T06:04:40;21.29;60.22
64599;SHT31;51008;51.504;11.548;2023-07-08T06:09:41;21.62;58.56
64599;SHT31;51008;51.504;11.548;2023-07-08T06:14:42;21.89;58.81
64599;SHT31;51008;51.504;11.548;2023-07-08T06:19:43;22.23;57.51
64599;SHT31;51008;51.504;11.548;2023-07-08T06:24:44;22.47;55.23
64599;SHT31;51008;51.504;11.548;2023-07-08T06:29:45;22.58;55.90
64599;SHT31;51008;51.504;11.548;2023-07-08T06:34:46;22.37;55.49
64599;SHT31;51008;51.504;11.548;2023-07-08T06:39:47;22.58;55.01
64599;SHT31;51008;51.504;11.548;2023-07-08T06:44:48;22.75;53.82
64599;SHT31;51008;51.504;11.548;2023-07-08T06:49:49;22.98;55.06
64599;SHT31;51008;51.504;11.548;2023-07-08T06:54:50;23.20;55.03
64599;SHT31;51008;51.504;11.548;2023-07-08T06:59:51;23.31;53.19
64599;SHT31;51008;51.504;11.548;2023-07-08T07:04:52;23.61;53.64
64599;SHT31;51008;51.504;11.548;2023-07-08T07:09:54;23.71;53.12
64599;SHT31;51008;51.504;11.548;2023-07-08T07:14:55;23.84;53.39
64599;SHT31;51008;51.504;11.548;2023-07-08T07:19:56;24.14;52.89
64599;SHT31;51008;51.504;11.548;2023-07-08T07:24:58;24.36;51.65
64599;SHT31;51008;51.504;11.548;2023-07-08T07:29:59;24.88;53.02
64599;SHT31;51008;51.504;11.548;2023-07-08T07:35:00;25.45;50.81
64599;SHT31;51008;51.504;11.548;2023-07-08T07:40:01;26.04;48.96
64599;SHT31;51008;51.504;11.548;2023-07-08T07:45:03;26.69;47.24
64599;SHT31;51008;51.504;11.548;2023-07-08T07:50:05;27.30;46.00
64599;SHT31;51008;51.504;11.548;2023-07-08T07:55:07;27.81;44.59
64599;SHT31;51008;51.504;11.548;2023-07-08T08:00:08;28.36;44.71
64599;SHT31;51008;51.504;11.548;2023-07-08T08:05:18;29.02;44.05
64599;SHT31;51008;51.504;11.548;2023-07-08T08:10:19;29.54;42.07
64599;SHT31;51008;51.504;11.548;2023-07-08T08:15:22;30.05;42.12
64599;SHT31;51008;51.504;11.548;2023-07-08T08:20:24;30.51;41.52
64599;SHT31;51008;51.504;11.548;2023-07-08T08:25:26;31.04;40.22
64599;SHT31;51008;51.504;11.548;2023-07-08T08:30:27;30.85;38.22
64599;SHT31;51008;51.504;11.548;2023-07-08T08:35:28;31.02;39.34
64599;SHT31;51008;51.504;11.548;2023-07-08T08:40:29;31.31;37.43
64599;SHT31;51008;51.504;11.548;2023-07-08T08:45:41;31.65;36.53
64599;SHT31;51008;51.504;11.548;2023-07-08T08:50:51;32.03;37.01
64599;SHT31;51008;51.504;11.548;2023-07-08T08:56:15;32.23;35.20
64599;SHT31;51008;51.504;11.548;2023-07-08T09:01:19;31.79;35.66
64599;SHT31;51008;51.504;11.548;2023-07-08T09:06:21;31.39;36.63
64599;SHT31;51008;51.504;11.548;2023-07-08T09:11:38;32.17;34.05
64599;SHT31;51008;51.504;11.548;2023-07-08T09:16:47;32.74;32.98
64599;SHT31;51008;51.504;11.548;2023-07-08T09:22:03;32.72;32.80
64599;SHT31;51008;51.504;11.548;2023-07-08T09:27:06;33.00;31.97
64599;SHT31;51008;51.504;11.548;2023-07-08T09:32:22;32.93;31.85
64599;SHT31;51008;51.504;11.548;2023-07-08T09:37:35;33.12;32.77
64599;SHT31;51008;51.504;11.548;2023-07-08T09:42:36;32.72;31.24
64599;SHT31;51008;51.504;11.548;2023-07-08T09:47:38;32.23;33.17
64599;SHT31;51008;51.504;11.548;2023-07-08T09:52:41;33.50;30.49
64599;SHT31;51008;51.504;11.548;2023-07-08T09:57:43;34.00;29.80
64599;SHT31;51008;51.504;11.548;2023-07-08T10:02:51;33.53;30.15
64599;SHT31;51008;51.504;11.548;2023-07-08T10:07:55;33.89;30.20
64599;SHT31;51008;51.504;11.548;2023-07-08T10:13:02;34.15;29.92
64599;SHT31;51008;51.504;11.548;2023-07-08T10:18:04;34.41;28.39
64599;SHT31;51008;51.504;11.548;2023-07-08T10:23:08;33.65;29.93
64599;SHT31;51008;51.504;11.548;2023-07-08T10:33:59;32.12;30.49
64599;SHT31;51008;51.504;11.548;2023-07-08T11:10:35;33.85;29.05
64599;SHT31;51008;51.504;11.548;2023-07-08T11:15:49;33.83;27.95
64599;SHT31;51008;51.504;11.548;2023-07-08T11:21:05;34.68;28.51
64599;SHT31;51008;51.504;11.548;2023-07-08T11:26:30;34.79;27.94
64599;SHT31;51008;51.504;11.548;2023-07-08T11:31:33;34.67;28.99
64599;SHT31;51008;51.504;11.548;2023-07-08T11:36:35;34.37;29.14
64599;SHT31;51008;51.504;11.548;2023-07-08T11:41:36;35.40;28.78
64599;SHT31;51008;51.504;11.548;2023-07-08T11:46:53;36.03;25.55
64599;SHT31;51008;51.504;11.548;2023-07-08T11:51:55;35.80;25.37
64599;SHT31;51008;51.504;11.548;2023-07-08T11:57:05;36.08;26.10
64599;SHT31;51008;51.504;11.548;2023-07-08T12:07:19;33.92;28.65
64599;SHT31;51008;51.504;11.548;2023-07-08T12:12:29;34.95;27.72
64599;SHT31;51008;51.504;11.548;2023-07-08T12:17:31;34.09;27.44
64599;SHT31;51008;51.504;11.548;2023-07-08T12:22:32;32.58;28.82
64599;SHT31;51008;51.504;11.548;2023-07-08T12:27:33;34.30;28.13
64599;SHT31;51008;51.504;11.548;2023-07-08T12:32:34;34.81;27.30
64599;SHT31;51008;51.504;11.548;2023-07-08T12:37:35;35.46;26.14
64599;SHT31;51008;51.504;11.548;2023-07-08T12:42:36;34.84;26.24
64599;SHT31;51008;51.504;11.548;2023-07-08T12:47:37;34.89;26.79
64599;SHT31;51008;51.504;11.548;2023-07-08T12:52:39;35.02;27.07
64599;SHT31;51008;51.504;11.548;2023-07-08T12:57:43;33.66;27.77
64599;SHT31;51008;51.504;11.548;2023-07-08T13:02:46;34.48;27.35
64599;SHT31;51008;51.504;11.548;2023-07-08T13:07:47;35.13;27.26
64599;SHT31;51008;51.504;11.548;2023-07-08T13:12:54;35.17;27.33
64599;SHT31;51008;51.504;11.548;2023-07-08T13:17:57;34.55;25.76
64599;SHT31;51008;51.504;11.548;2023-07-08T13:23:00;35.19;27.59
64599;SHT31;51008;51.504;11.548;2023-07-08T13:28:15;34.85;26.72
64599;SHT31;51008;51.504;11.548;2023-07-08T13:33:16;35.00;27.58
64599;SHT31;51008;51.504;11.548;2023-07-08T13:38:22;35.40;25.97
64599;SHT31;51008;51.504;11.548;2023-07-08T13:43:29;34.74;26.79
64599;SHT31;51008;51.504;11.548;2023-07-08T13:48:40;34.55;27.49
64599;SHT31;51008;51.504;11.548;2023-07-08T13:53:49;34.74;27.30
64599;SHT31;51008;51.504;11.548;2023-07-08T13:59:00;34.86;26.49
64599;SHT31;51008;51.504;11.548;2023-07-08T14:04:01;34.71;26.61
64599;SHT31;51008;51.504;11.548;2023-07-08T14:14:15;34.88;26.15
64599;SHT31;51008;51.504;11.548;2023-07-08T14:19:21;34.89;26.01
64599;SHT31;51008;51.504;11.548;2023-07-08T14:24:23;34.74;26.20
64599;SHT31;51008;51.504;11.548;2023-07-08T14:29:24;34.62;25.58
64599;SHT31;51008;51.504;11.548;2023-07-08T14:34:26;34.74;26.35
64599;SHT31;51008;51.504;11.548;2023-07-08T14:39:27;34.88;27.21
64599;SHT31;51008;51.504;11.548;2023-07-08T14:44:35;34.67;26.01
64599;SHT31;51008;51.504;11.548;2023-07-08T14:49:36;34.23;27.60
64599;SHT31;51008;51.504;11.548;2023-07-08T14:54:36;33.59;27.12
64599;SHT31;51008;51.504;11.548;2023-07-08T14:59:38;33.57;27.26
64599;SHT31;51008;51.504;11.548;2023-07-08T15:04:39;33.14;27.20
64599;SHT31;51008;51.504;11.548;2023-07-08T15:09:40;32.83;28.10
64599;SHT31;51008;51.504;11.548;2023-07-08T15:14:41;32.92;28.09
64599;SHT31;51008;51.504;11.548;2023-07-08T15:19:43;32.67;28.96
64599;SHT31;51008;51.504;11.548;2023-07-08T15:24:44;32.31;29.37
64599;SHT31;51008;51.504;11.548;2023-07-08T15:29:45;32.40;28.82
64599;SHT31;51008;51.504;11.548;2023-07-08T15:34:46;32.78;28.88
64599;SHT31;51008;51.504;11.548;2023-07-08T15:39:47;32.98;26.42
64599;SHT31;51008;51.504;11.548;2023-07-08T15:44:48;33.13;26.89
64599;SHT31;51008;51.504;11.548;2023-07-08T15:49:49;33.27;27.60
64599;SHT31;51008;51.504;11.548;2023-07-08T15:54:50;32.75;26.26
64599;SHT31;51008;51.504;11.548;2023-07-08T15:59:51;32.45;28.29
64599;SHT31;51008;51.504;11.548;2023-07-08T16:04:52;32.69;27.60
64599;SHT31;51008;51.504;11.548;2023-07-08T16:09:53;32.85;27.47
64599;SHT31;51008;51.504;11.548;2023-07-08T16:14:54;32.89;27.52
64599;SHT31;51008;51.504;11.548;2023-07-08T16:19:55;33.04;28.22
64599;SHT31;51008;51.504;11.548;2023-07-08T16:24:56;32.99;27.48
64599;SHT31;51008;51.504;11.548;2023-07-08T16:29:57;32.85;28.59
64599;SHT31;51008;51.504;11.548;2023-07-08T16:34:58;32.17;27.99
64599;SHT31;51008;51.504;11.548;2023-07-08T16:39:59;32.20;28.75
64599;SHT31;51008;51.504;11.548;2023-07-08T16:45:00;32.44;28.88
64599;SHT31;51008;51.504;11.548;2023-07-08T16:50:01;32.57;27.81
64599;SHT31;51008;51.504;11.548;2023-07-08T16:55:14;32.47;28.65
64599;SHT31;51008;51.504;11.548;2023-07-08T17:00:20;31.81;29.61
64599;SHT31;51008;51.504;11.548;2023-07-08T17:05:24;31.59;30.31
64599;SHT31;51008;51.504;11.548;2023-07-08T17:10:28;31.61;30.70
64599;SHT31;51008;51.504;11.548;2023-07-08T17:15:30;31.83;30.36
64599;SHT31;51008;51.504;11.548;2023-07-08T17:20:35;31.88;30.09
64599;SHT31;51008;51.504;11.548;2023-07-08T17:25:36;31.92;30.56
64599;SHT31;51008;51.504;11.548;2023-07-08T17:30:41;31.89;30.09
64599;SHT31;51008;51.504;11.548;2023-07-08T17:35:43;31.85;30.40
64599;SHT31;51008;51.504;11.548;2023-07-08T17:40:44;31.81;30.00
64599;SHT31;51008;51.504;11.548;2023-07-08T17:45:45;31.69;30.63
64599;SHT31;51008;51.504;11.548;2023-07-08T17:50:46;31.52;30.67
64599;SHT31;51008;51.504;11.548;2023-07-08T17:55:50;31.38;31.68
64599;SHT31;51008;51.504;11.548;2023-07-08T18:00:51;31.35;31.68
64599;SHT31;51008;51.504;11.548;2023-07-08T18:05:52;31.16;32.08
64599;SHT31;51008;51.504;11.548;2023-07-08T18:10:53;30.99;34.25
64599;SHT31;51008;51.504;11.548;2023-07-08T18:15:54;30.83;33.56
64599;SHT31;51008;51.504;11.548;2023-07-08T18:20:55;30.58;36.47
64599;SHT31;51008;51.504;11.548;2023-07-08T18:25:56;29.97;38.39
64599;SHT31;51008;51.504;11.548;2023-07-08T18:30:57;29.35;40.37
64599;SHT31;51008;51.504;11.548;2023-07-08T18:35:58;28.99;41.55
64599;SHT31;51008;51.504;11.548;2023-07-08T18:40:59;28.62;42.30
64599;SHT31;51008;51.504;11.548;2023-07-08T18:45:59;28.14;43.88
64599;SHT31;51008;51.504;11.548;2023-07-08T18:51:00;27.73;45.90
64599;SHT31;51008;51.504;11.548;2023-07-08T18:56:01;27.37;45.76
64599;SHT31;51008;51.504;11.548;2023-07-08T19:01:07;27.10;46.44
64599;SHT31;51008;51.504;11.548;2023-07-08T19:06:11;26.55;47.44
64599;SHT31;51008;51.504;11.548;2023-07-08T19:11:20;26.26;47.48
64599;SHT31;51008;51.504;11.548;2023-07-08T19:16:21;25.93;49.73
64599;SHT31;51008;51.504;11.548;2023-07-08T19:21:24;25.48;50.55
64599;SHT31;51008;51.504;11.548;2023-07-08T19:26:26;25.16;53.57
64599;SHT31;51008;51.504;11.548;2023-07-08T19:31:30;24.86;53.36
64599;SHT31;51008;51.504;11.548;2023-07-08T19:36:32;24.43;54.03
64599;SHT31;51008;51.504;11.548;2023-07-08T19:41:35;24.16;53.96
64599;SHT31;51008;51.504;11.548;2023-07-08T19:46:36;23.86;54.40
64599;SHT31;51008;51.504;11.548;2023-07-08T19:51:37;23.61;53.94
64599;SHT31;51008;51.504;11.548;2023-07-08T19:56:38;23.39;54.73
64599;SHT31;51008;51.504;11.548;2023-07-08T20:01:39;23.13;54.60
64599;SHT31;51008;51.504;11.548;2023-07-08T20:06:40;22.98;54.62
64599;SHT31;51008;51.504;11.548;2023-07-08T20:11:41;22.73;55.68
64599;SHT31;51008;51.504;11.548;2023-07-08T20:16:42;22.36;55.40
64599;SHT31;51008;51.504;11.548;2023-07-08T20:21:43;22.20;56.20
64599;SHT31;51008;51.504;11.548;2023-07-08T20:26:44;22.06;56.88
64599;SHT31;51008;51.504;11.548;2023-07-08T20:31:46;21.99;56.90
64599;SHT31;51008;51.504;11.548;2023-07-08T20:36:47;21.81;57.23
64599;SHT31;51008;51.504;11.548;2023-07-08T20:41:48;21.73;56.72
64599;SHT31;51008;51.504;11.548;2023-07-08T20:46:49;21.47;57.62
64599;SHT31;51008;51.504;11.548;2023-07-08T20:51:50;21.34;57.22
64599;SHT31;51008;51.504;11.548;2023-07-08T20:56:51;21.24;57.20
64599;SHT31;51008;51.504;11.548;2023-07-08T21:01:53;21.14;56.30
64599;SHT31;51008;51.504;11.548;2023-07-08T21:06:54;20.98;57.20
64599;SHT31;51008;51.504;11.548;2023-07-08T21:11:55;20.75;56.78
64599;SHT31;51008;51.504;11.548;2023-07-08T21:16:56;20.67;57.92
64599;SHT31;51008;51.504;11.548;2023-07-08T21:21:57;20.53;57.94
64599;SHT31;51008;51.504;11.548;2023-07-08T21:26:58;20.43;58.29
64599;SHT31;51008;51.504;11.548;2023-07-08T21:31:59;20.30;58.89
64599;SHT31;51008;51.504;11.548;2023-07-08T21:37:01;20.10;59.78
64599;SHT31;51008;51.504;11.548;2023-07-08T21:42:02;19.96;61.33
64599;SHT31;51008;51.504;11.548;2023-07-08T21:47:04;19.88;62.33
64599;SHT31;51008;51.504;11.548;2023-07-08T21:52:05;19.67;64.00
64599;SHT31;51008;51.504;11.548;2023-07-08T21:57:12;19.50;63.57
64599;SHT31;51008;51.504;11.548;2023-07-08T22:02:13;19.46;62.52
64599;SHT31;51008;51.504;11.548;2023-07-08T22:07:14;19.41;62.32
64599;SHT31;51008;51.504;11.548;2023-07-08T22:12:15;19.38;62.43
64599;SHT31;51008;51.504;11.548;2023-07-08T22:17:16;19.37;62.04
64599;SHT31;51008;51.504;11.548;2023-07-08T22:22:19;19.30;61.93
64599;SHT31;51008;51.504;11.548;2023-07-08T22:27:21;19.20;61.74
64599;SHT31;51008;51.504;11.548;2023-07-08T22:32:22;19.09;62.00
64599;SHT31;51008;51.504;11.548;2023-07-08T22:37:23;19.11;61.77
64599;SHT31;51008;51.504;11.548;2023-07-08T22:42:24;19.01;61.89
64599;SHT31;51008;51.504;11.548;2023-07-08T22:47:25;18.94;62.53
64599;SHT31;51008;51.504;11.548;2023-07-08T22:52:28;18.87;62.34
64599;SHT31;51008;51.504;11.548;2023-07-08T22:57:31;18.71;63.41
64599;SHT31;51008;51.504;11.548;2023-07-08T23:02:32;18.65;63.14
64599;SHT31;51008;51.504;11.548;2023-07-08T23:07:33;18.58;63.26
64599;SHT31;51008;51.504;11.548;2023-07-08T23:12:34;18.51;63.53
64599;SHT31;51008;51.504;11.548;2023-07-08T23:17:40;18.44;63.79
64599;SHT31;51008;51.504;11.548;2023-07-08T23:22:41;18.36;64.01
64599;SHT31;51008;51.504;11.548;2023-07-08T23:27:42;18.30;64.07
64599;SHT31;51008;51.504;11.548;2023-07-08T23:32:44;18.25;64.45
64599;SHT31;51008;51.504;11.548;2023-07-08T23:37:45;18.10;64.91
64599;SHT31;51008;51.504;11.548;2023-07-08T23:42:46;18.04;65.31
64599;SHT31;51008;51.504;11.548;2023-07-08T23:47:47;18.01;65.38
64599;SHT31;51008;51.504;11.548;2023-07-08T23:52:48;17.97;65.94
64599;SHT31;51008;51.504;11.548;2023-07-08T23:57:49;17.84;65.92
